Time;durP1;ratioP1;P1;durP2;ratioP2;P2;SDS_P1;SDS_P2;PMS_P1;PMS_P2;Temp;Humidity;BMP_temperature;BMP_pressure;BME280_temperature;BME280_humidity;BME280_pressure;Samples;Min_cycle;Max_cycle;Signal;HPM_P1;HPM_P2
2023/01/30 00:01:25;;;;;;;19.80;10.40;;;7.50;99.90;;;;;;5024767;28;20467;-88
2023/01/30 00:03:51;;;;;;;15.93;7.87;;;7.50;99.90;;;;;;4994388;28;20116;-88
2023/01/30 00:06:17;;;;;;;19.17;9.18;;;7.50;99.90;;;;;;5003143;28;20033;-89
2023/01/30 00:08:44;;;;;;;19.60;9.70;;;7.50;99.90;;;;;;5027822;28;20304;-85
2023/01/30 00:11:12;;;;;;;19.20;9.17;;;7.50;99.90;;;;;;4976627;28;21743;-87
2023/01/30 00:13:39;;;;;;;16.27;8.10;;;7.50;99.90;;;;;;5016412;28;20578;-88
2023/01/30 00:16:05;;;;;;;18.05;8.35;;;7.50;99.90;;;;;;5001612;28;20022;-88
2023/01/30 00:18:31;;;;;;;20.30;10.52;;;7.50;99.90;;;;;;5012105;28;20108;-87
2023/01/30 00:20:58;;;;;;;20.15;9.75;;;7.60;99.90;;;;;;5005183;28;20264;-90
2023/01/30 00:23:26;;;;;;;20.27;9.27;;;7.60;99.90;;;;;;5025680;28;20203;-87
2023/01/30 00:25:52;;;;;;;19.80;9.50;;;7.60;99.90;;;;;;5004400;28;20417;-86
2023/01/30 00:28:18;;;;;;;19.73;9.63;;;7.60;99.90;;;;;;5008046;28;20433;-89
2023/01/30 00:30:47;;;;;;;18.33;9.15;;;7.60;99.90;;;;;;4996408;28;20526;-87
2023/01/30 00:33:12;;;;;;;19.35;9.52;;;7.60;99.90;;;;;;5025685;28;20580;-87
2023/01/30 00:35:43;;;;;;;23.17;10.40;;;7.60;99.90;;;;;;5012169;28;20028;-88
2023/01/30 00:38:09;;;;;;;21.38;9.68;;;7.60;99.90;;;;;;5002901;28;20161;-88
2023/01/30 00:40:34;;;;;;;19.37;9.53;;;7.60;99.90;;;;;;5026535;28;20029;-89
2023/01/30 00:48:30;;;;;;;20.25;9.45;;;7.60;99.90;;;;;;5043940;28;20512;-88
2023/01/30 00:50:56;;;;;;;20.52;9.57;;;7.60;99.90;;;;;;5005117;28;20056;-88
2023/01/30 00:53:22;;;;;;;16.10;8.13;;;7.60;99.90;;;;;;5016484;28;20128;-89
2023/01/30 00:55:50;;;;;;;17.60;8.55;;;7.60;99.90;;;;;;5023368;28;20037;-88
2023/01/30 00:58:16;;;;;;;19.10;9.20;;;7.60;99.90;;;;;;4988564;28;20025;-85
2023/01/30 01:00:42;;;;;;;16.20;8.17;;;7.70;99.90;;;;;;5026935;28;20777;-87
2023/01/30 01:03:08;;;;;;;21.65;9.95;;;7.60;99.90;;;;;;5001384;28;20020;-89
2023/01/30 01:05:33;;;;;;;20.63;10.33;;;7.70;99.90;;;;;;5010290;28;20091;-89
2023/01/30 01:08:00;;;;;;;19.55;9.85;;;7.60;99.90;;;;;;4996370;28;20082;-87
2023/01/30 01:10:27;;;;;;;19.63;9.88;;;7.70;99.90;;;;;;5015955;28;20051;-86
2023/01/30 01:12:54;;;;;;;20.33;9.90;;;7.70;99.90;;;;;;5001953;28;20033;-88
2023/01/30 01:15:21;;;;;;;21.93;9.87;;;7.70;99.90;;;;;;5014562;28;20112;-89
2023/01/30 01:17:47;;;;;;;20.58;9.90;;;7.70;99.90;;;;;;5018825;28;20044;-87
2023/01/30 01:20:14;;;;;;;19.42;10.10;;;7.70;99.90;;;;;;5028431;28;20382;-87
2023/01/30 01:22:40;;;;;;;16.67;8.00;;;7.70;99.90;;;;;;5024668;28;20033;-90
2023/01/30 01:25:08;;;;;;;21.80;9.98;;;7.70;99.90;;;;;;4996818;28;20066;-92
2023/01/30 01:27:34;;;;;;;19.20;9.40;;;7.70;99.90;;;;;;5027606;28;20032;-88
2023/01/30 01:29:59;;;;;;;20.27;9.70;;;7.70;99.90;;;;;;5008507;28;20707;-87
2023/01/30 01:32:25;;;;;;;20.60;10.67;;;7.80;99.90;;;;;;5032732;28;20021;-89
2023/01/30 01:34:51;;;;;;;19.30;8.37;;;7.80;99.90;;;;;;5021739;28;20275;-89
2023/01/30 01:37:17;;;;;;;18.15;9.00;;;7.70;99.90;;;;;;5012432;28;20021;-89
2023/01/30 01:42:34;;;;;;;17.08;8.00;;;7.80;99.90;;;;;;5034180;28;20167;-88
2023/01/30 01:45:11;;;;;;;16.15;8.38;;;7.80;99.90;;;;;;5004704;28;20285;-87
2023/01/30 01:47:59;;;;;;;15.98;7.68;;;7.80;99.90;;;;;;5025550;28;20045;-87
2023/01/30 01:50:42;;;;;;;15.77;7.60;;;7.80;99.90;;;;;;5007329;28;20086;-88
2023/01/30 01:53:10;;;;;;;18.92;9.45;;;7.80;99.90;;;;;;5003486;28;20066;-87
2023/01/30 01:55:38;;;;;;;19.63;9.18;;;7.80;99.90;;;;;;5030117;28;22723;-88
2023/01/30 01:58:14;;;;;;;19.00;9.07;;;7.90;99.90;;;;;;5005816;28;20047;-87
2023/01/30 02:00:40;;;;;;;19.88;9.25;;;7.90;99.90;;;;;;4993423;28;20937;-93
2023/01/30 02:03:11;;;;;;;19.53;10.10;;;7.90;99.90;;;;;;5010071;28;20229;-91
2023/01/30 02:05:42;;;;;;;18.67;9.32;;;7.90;99.90;;;;;;4997870;28;20561;-92
2023/01/30 02:08:33;;;;;;;20.60;9.93;;;7.90;99.90;;;;;;5029822;28;20234;-91
2023/01/30 02:11:16;;;;;;;18.73;9.60;;;7.90;99.90;;;;;;5014549;28;20476;-92
2023/01/30 02:13:46;;;;;;;15.13;8.00;;;7.90;99.90;;;;;;5017796;28;20025;-93
2023/01/30 02:16:13;;;;;;;15.67;7.53;;;7.90;99.90;;;;;;5002611;28;20055;-92
2023/01/30 02:18:40;;;;;;;16.13;8.13;;;8.00;99.90;;;;;;5014679;28;20020;-89
2023/01/30 02:21:31;;;;;;;14.88;7.72;;;8.00;99.90;;;;;;5018300;28;20634;-91
2023/01/30 02:24:34;;;;;;;16.23;8.60;;;8.00;99.90;;;;;;5033352;28;20063;-90
2023/01/30 02:27:22;;;;;;;15.33;7.10;;;8.00;99.90;;;;;;4999878;28;20082;-92
2023/01/30 02:30:10;;;;;;;20.27;9.45;;;8.00;99.90;;;;;;5011786;28;20559;-91
2023/01/30 02:32:48;;;;;;;16.00;8.48;;;8.00;99.90;;;;;;5018985;28;20219;-91
2023/01/30 02:35:48;;;;;;;15.90;7.97;;;8.10;99.90;;;;;;5029347;28;20033;-90
2023/01/30 02:38:29;;;;;;;14.90;7.30;;;8.10;99.90;;;;;;5015829;28;20549;-94
2023/01/30 02:41:29;;;;;;;12.47;6.40;;;8.10;99.90;;;;;;5034261;28;20025;-92
2023/01/30 02:44:10;;;;;;;13.38;6.95;;;8.20;99.90;;;;;;5031438;28;20578;-91
2023/01/30 02:46:48;;;;;;;13.50;7.03;;;8.20;99.90;;;;;;4987701;28;20410;-90
2023/01/30 02:49:17;;;;;;;13.20;6.68;;;8.20;99.90;;;;;;5002033;28;20029;-93
2023/01/30 02:51:45;;;;;;;10.82;5.70;;;8.20;99.90;;;;;;5006102;28;20147;-93
2023/01/30 02:54:13;;;;;;;11.87;6.33;;;8.30;99.90;;;;;;5015304;28;20100;-91
2023/01/30 02:56:48;;;;;;;13.07;6.68;;;8.30;99.90;;;;;;5012041;28;20118;-92
2023/01/30 02:59:18;;;;;;;13.40;6.57;;;8.30;99.90;;;;;;5013944;28;20587;-93
2023/01/30 03:02:13;;;;;;;10.40;5.90;;;8.40;99.90;;;;;;5015170;28;20028;-91
2023/01/30 03:04:47;;;;;;;11.75;5.65;;;8.40;99.90;;;;;;5028616;28;20668;-92
2023/01/30 03:07:51;;;;;;;13.00;7.10;;;8.40;99.90;;;;;;5022565;28;20055;-91
2023/01/30 03:10:36;;;;;;;13.55;5.88;;;8.40;99.90;;;;;;5025035;28;20194;-93
2023/01/30 03:13:25;;;;;;;11.35;6.35;;;8.50;99.90;;;;;;5016747;28;20855;-93
2023/01/30 03:15:59;;;;;;;12.40;5.93;;;8.50;99.90;;;;;;4981782;28;20135;-93
2023/01/30 03:18:25;;;;;;;11.07;5.47;;;8.50;99.90;;;;;;5011824;28;20101;-89
2023/01/30 03:20:50;;;;;;;10.20;5.17;;;8.60;99.90;;;;;;5011081;28;22273;-92
2023/01/30 03:23:16;;;;;;;10.60;5.32;;;8.50;99.90;;;;;;5001037;28;20036;-91
2023/01/30 03:25:45;;;;;;;10.17;5.33;;;8.50;99.90;;;;;;5010355;28;20673;-93
2023/01/30 03:28:13;;;;;;;11.20;5.63;;;8.60;99.90;;;;;;4999402;28;20031;-92
2023/01/30 03:30:39;;;;;;;14.68;6.88;;;8.60;99.90;;;;;;4996636;28;20037;-92
2023/01/30 03:33:05;;;;;;;12.32;6.20;;;8.60;99.90;;;;;;5001348;28;20413;-92
2023/01/30 03:35:31;;;;;;;10.57;5.90;;;8.70;99.90;;;;;;5003452;28;20103;-93
2023/01/30 03:37:57;;;;;;;10.82;5.75;;;8.70;99.90;;;;;;5018097;28;20060;-92
2023/01/30 03:40:23;;;;;;;11.65;6.00;;;8.70;99.90;;;;;;5003653;28;20025;-92
2023/01/30 03:42:49;;;;;;;14.45;6.43;;;8.70;99.90;;;;;;5016178;28;20040;-91
2023/01/30 03:45:15;;;;;;;9.87;5.60;;;8.70;99.90;;;;;;5008336;28;20031;-92
2023/01/30 03:47:40;;;;;;;11.47;5.80;;;8.70;99.90;;;;;;5017880;28;20284;-91
2023/01/30 03:50:06;;;;;;;10.82;5.78;;;8.70;99.90;;;;;;5010759;28;20032;-89
2023/01/30 03:52:34;;;;;;;10.82;5.03;;;8.70;99.90;;;;;;5023207;28;20357;-90
2023/01/30 03:55:00;;;;;;;11.35;5.72;;;8.70;99.90;;;;;;5021216;28;20055;-92
2023/01/30 03:57:26;;;;;;;11.73;5.43;;;8.70;99.90;;;;;;5004750;28;20040;-92
2023/01/30 03:59:51;;;;;;;11.32;5.38;;;8.70;99.90;;;;;;4997773;28;20052;-91
2023/01/30 04:02:21;;;;;;;11.60;5.70;;;8.60;99.90;;;;;;5007038;28;20039;-93
2023/01/30 04:04:49;;;;;;;9.23;4.70;;;8.60;99.90;;;;;;5012377;28;20131;-91
2023/01/30 04:07:15;;;;;;;9.25;4.80;;;8.60;99.90;;;;;;5024298;28;20056;-92
2023/01/30 04:09:41;;;;;;;9.93;5.00;;;8.60;99.90;;;;;;5006863;28;20040;-92
2023/01/30 04:12:07;;;;;;;7.50;4.13;;;8.60;99.90;;;;;;5010880;28;20025;-90
2023/01/30 04:14:32;;;;;;;11.70;5.10;;;8.50;99.90;;;;;;5014421;28;20988;-91
2023/01/30 04:16:58;;;;;;;9.48;4.57;;;8.50;99.90;;;;;;5010256;28;21145;-89
2023/01/30 04:19:24;;;;;;;9.87;4.20;;;8.60;99.90;;;;;;5003240;28;20532;-91
2023/01/30 04:21:51;;;;;;;6.93;4.20;;;8.50;99.90;;;;;;5013966;28;20537;-90
2023/01/30 04:24:17;;;;;;;6.32;3.40;;;8.50;99.90;;;;;;5023495;28;20389;-88
2023/01/30 04:26:43;;;;;;;8.30;3.80;;;8.50;99.90;;;;;;5006729;28;20110;-89
2023/01/30 04:29:08;;;;;;;7.63;4.10;;;8.50;99.90;;;;;;5013865;28;20517;-90
2023/01/30 04:31:34;;;;;;;9.33;4.13;;;8.50;99.90;;;;;;5012688;28;20246;-90
2023/01/30 04:33:59;;;;;;;7.50;4.30;;;8.50;99.90;;;;;;5006527;28;20107;-90
2023/01/30 04:36:27;;;;;;;7.63;3.90;;;8.50;99.90;;;;;;5022837;28;20086;-90
2023/01/30 04:38:53;;;;;;;7.63;3.83;;;8.60;99.90;;;;;;5025634;28;20416;-91
2023/01/30 04:41:19;;;;;;;9.82;4.28;;;8.50;99.90;;;;;;4990159;28;20025;-90
2023/01/30 04:43:45;;;;;;;8.50;3.80;;;8.60;99.90;;;;;;5012563;28;20024;-89
2023/01/30 04:46:11;;;;;;;8.55;4.05;;;8.60;99.90;;;;;;5014899;28;20060;-90
2023/01/30 04:48:36;;;;;;;7.73;4.03;;;8.60;99.90;;;;;;4991170;28;20319;-91
2023/01/30 04:51:02;;;;;;;8.02;3.53;;;8.60;99.90;;;;;;5025859;28;20057;-90
2023/01/30 04:53:28;;;;;;;8.00;4.03;;;8.50;99.90;;;;;;5007095;28;20017;-90
2023/01/30 04:55:54;;;;;;;7.93;4.20;;;8.60;99.90;;;;;;5000868;28;20020;-89
2023/01/30 04:58:19;;;;;;;7.77;4.00;;;8.60;99.90;;;;;;5027668;28;20028;-90
2023/01/30 05:00:46;;;;;;;7.85;4.05;;;8.60;99.90;;;;;;4996553;28;20032;-90
2023/01/30 05:03:11;;;;;;;8.70;3.67;;;8.60;99.90;;;;;;5004384;28;20057;-89
2023/01/30 05:05:37;;;;;;;6.70;3.73;;;8.60;99.90;;;;;;4997633;28;20071;-90
2023/01/30 05:08:03;;;;;;;7.55;3.75;;;8.70;99.90;;;;;;5030165;28;20574;-89
2023/01/30 05:10:29;;;;;;;7.18;3.80;;;8.70;99.90;;;;;;5026099;28;20029;-90
2023/01/30 05:12:54;;;;;;;7.77;3.80;;;8.70;99.90;;;;;;5002990;28;20457;-90
2023/01/30 05:15:20;;;;;;;5.78;3.08;;;8.70;99.90;;;;;;5015620;28;20024;-91
2023/01/30 05:17:46;;;;;;;6.03;3.20;;;8.70;99.90;;;;;;5006728;28;20045;-89
2023/01/30 05:20:13;;;;;;;6.37;3.23;;;8.70;99.90;;;;;;4988747;28;20029;-91
2023/01/30 05:22:38;;;;;;;8.55;3.50;;;8.80;99.90;;;;;;5013127;28;20044;-92
2023/01/30 05:25:05;;;;;;;4.93;3.22;;;8.80;99.90;;;;;;5014412;28;20409;-90
2023/01/30 05:27:31;;;;;;;5.15;2.90;;;8.80;99.90;;;;;;4994499;28;20161;-89
2023/01/30 05:29:56;;;;;;;6.60;3.40;;;8.80;99.90;;;;;;5019158;28;20017;-88
2023/01/30 05:32:22;;;;;;;6.25;3.38;;;8.80;99.90;;;;;;4996949;28;20033;-88
2023/01/30 05:34:48;;;;;;;5.47;3.10;;;8.80;99.90;;;;;;5009243;28;20094;-89
2023/01/30 05:37:14;;;;;;;5.43;2.95;;;8.80;99.90;;;;;;5032550;28;20119;-89
2023/01/30 05:39:40;;;;;;;7.20;3.25;;;8.90;99.90;;;;;;5012978;28;20039;-90
2023/01/30 05:42:06;;;;;;;6.50;3.30;;;8.90;99.90;;;;;;5018617;28;20029;-90
2023/01/30 05:44:32;;;;;;;6.47;3.35;;;8.90;99.90;;;;;;5018921;28;20033;-90
2023/01/30 05:46:57;;;;;;;6.37;3.13;;;8.90;99.90;;;;;;4996165;28;20025;-91
2023/01/30 05:49:23;;;;;;;6.25;2.80;;;8.90;99.90;;;;;;5009119;28;20433;-87
2023/01/30 05:51:49;;;;;;;4.33;2.57;;;8.90;99.90;;;;;;5024223;28;20469;-89
2023/01/30 05:54:16;;;;;;;5.60;3.10;;;9.00;99.90;;;;;;5029581;28;20290;-91
2023/01/30 05:56:41;;;;;;;6.47;3.10;;;9.00;99.90;;;;;;5002539;28;20499;-90
2023/01/30 05:59:11;;;;;;;5.07;2.83;;;9.00;99.90;;;;;;5015970;28;20064;-87
2023/01/30 06:01:36;;;;;;;5.75;3.25;;;9.00;99.90;;;;;;4993847;28;20237;-88
2023/01/30 06:04:02;;;;;;;6.60;2.60;;;9.00;99.90;;;;;;5012252;28;20059;-89
2023/01/30 06:06:28;;;;;;;4.95;2.78;;;9.00;99.90;;;;;;4979962;28;20083;-90
2023/01/30 06:08:55;;;;;;;4.67;2.57;;;9.00;99.90;;;;;;5012139;28;20381;-90
2023/01/30 06:11:21;;;;;;;5.43;2.95;;;9.10;99.90;;;;;;5001802;28;20140;-89
2023/01/30 06:13:47;;;;;;;4.88;2.63;;;9.10;99.90;;;;;;5024532;28;20024;-89
2023/01/30 06:16:15;;;;;;;4.83;2.47;;;9.10;99.90;;;;;;4980573;28;20049;-89
2023/01/30 06:18:41;;;;;;;4.72;2.25;;;9.00;99.90;;;;;;5008552;28;20074;-89
2023/01/30 06:21:08;;;;;;;5.15;2.90;;;9.10;99.90;;;;;;5002966;28;20797;-88
2023/01/30 06:23:33;;;;;;;4.25;2.40;;;9.10;99.90;;;;;;5010441;28;20052;-88
2023/01/30 06:25:59;;;;;;;4.33;2.40;;;9.10;99.90;;;;;;5010352;28;20128;-88
2023/01/30 06:28:26;;;;;;;3.80;2.40;;;9.10;99.90;;;;;;5029514;28;20032;-89
2023/01/30 06:30:52;;;;;;;4.53;2.55;;;9.10;99.90;;;;;;5009498;28;20226;-90
2023/01/30 06:33:19;;;;;;;4.22;2.70;;;9.10;99.90;;;;;;5005867;28;20017;-89
2023/01/30 06:35:48;;;;;;;4.55;2.95;;;9.10;99.90;;;;;;4994727;28;20037;-89
2023/01/30 06:38:14;;;;;;;4.90;2.70;;;9.10;99.90;;;;;;5021532;28;20037;-89
2023/01/30 06:40:42;;;;;;;5.78;3.03;;;9.10;99.90;;;;;;5011106;28;20102;-89
2023/01/30 06:43:08;;;;;;;6.05;2.60;;;9.10;99.90;;;;;;5003600;28;20087;-89
2023/01/30 06:45:35;;;;;;;6.07;2.40;;;9.10;99.90;;;;;;5014949;28;20493;-90
2023/01/30 06:48:01;;;;;;;4.47;2.50;;;9.10;99.90;;;;;;4993968;28;20110;-89
2023/01/30 06:50:28;;;;;;;3.70;2.40;;;9.10;99.90;;;;;;5019880;28;20441;-89
2023/01/30 06:52:55;;;;;;;4.77;2.50;;;9.10;99.90;;;;;;4978928;28;20272;-90
2023/01/30 06:55:23;;;;;;;4.40;2.60;;;9.10;99.90;;;;;;5005176;28;20552;-89
2023/01/30 06:57:49;;;;;;;4.85;2.55;;;9.10;99.90;;;;;;4996782;28;20033;-90
2023/01/30 07:00:18;;;;;;;5.45;2.53;;;9.10;99.90;;;;;;5024613;28;20036;-89
2023/01/30 07:02:44;;;;;;;4.85;2.45;;;9.10;99.90;;;;;;5009997;28;20086;-90
2023/01/30 07:05:10;;;;;;;4.90;2.30;;;9.10;99.90;;;;;;4993779;28;20025;-89
2023/01/30 07:07:37;;;;;;;4.22;2.20;;;9.10;99.90;;;;;;4996444;28;20120;-90
2023/01/30 07:10:05;;;;;;;4.60;2.60;;;9.10;99.90;;;;;;4984252;28;20428;-89
2023/01/30 07:12:31;;;;;;;5.15;2.60;;;9.10;99.90;;;;;;5004601;28;20058;-90
2023/01/30 07:14:57;;;;;;;6.60;2.97;;;9.10;99.90;;;;;;5023003;28;20029;-90
2023/01/30 07:17:23;;;;;;;4.50;2.33;;;9.10;99.90;;;;;;4985248;28;20239;-90
2023/01/30 07:19:48;;;;;;;5.78;2.40;;;9.10;99.90;;;;;;5029454;28;20048;-90
2023/01/30 07:22:14;;;;;;;5.53;2.87;;;9.10;99.90;;;;;;5005677;28;20154;-89
2023/01/30 07:24:41;;;;;;;4.57;2.38;;;9.10;99.90;;;;;;5003108;28;20385;-89
2023/01/30 07:27:09;;;;;;;4.82;2.70;;;9.10;99.90;;;;;;5000595;28;20359;-89
2023/01/30 07:29:35;;;;;;;4.23;2.20;;;9.10;99.90;;;;;;5015737;28;20036;-91
2023/01/30 07:32:02;;;;;;;4.15;2.00;;;9.10;99.90;;;;;;5021417;28;20025;-91
2023/01/30 07:34:28;;;;;;;3.97;2.10;;;9.10;99.90;;;;;;5011262;28;20210;-89
2023/01/30 07:36:54;;;;;;;6.88;2.25;;;9.20;99.90;;;;;;4997425;28;20382;-90
2023/01/30 07:39:19;;;;;;;6.53;2.20;;;9.20;99.90;;;;;;5010428;28;20078;-90
2023/01/30 07:41:45;;;;;;;6.68;2.35;;;9.20;99.90;;;;;;5034442;28;20021;-90
2023/01/30 07:44:12;;;;;;;3.30;1.70;;;9.20;99.90;;;;;;5031938;28;20029;-89
2023/01/30 07:46:39;;;;;;;4.70;1.70;;;9.20;99.90;;;;;;5030228;28;20021;-88
2023/01/30 07:49:07;;;;;;;6.35;2.20;;;9.20;99.90;;;;;;5031379;28;20103;-90
2023/01/30 07:51:33;;;;;;;4.32;1.67;;;9.10;99.90;;;;;;5013014;28;20029;-91
2023/01/30 07:54:02;;;;;;;4.70;1.70;;;9.20;99.90;;;;;;5002810;28;20029;-90
2023/01/30 07:56:29;;;;;;;3.13;1.23;;;9.10;99.90;;;;;;4991003;28;20107;-91
2023/01/30 07:58:55;;;;;;;3.28;1.30;;;9.10;99.90;;;;;;5033968;28;20614;-90
2023/01/30 08:01:21;;;;;;;4.68;1.40;;;9.10;99.90;;;;;;5012921;28;20319;-90
2023/01/30 08:03:48;;;;;;;4.57;1.48;;;9.00;99.90;;;;;;5006250;28;20036;-88
2023/01/30 08:06:17;;;;;;;2.63;1.20;;;9.00;99.90;;;;;;5032905;28;20046;-89
2023/01/30 08:08:43;;;;;;;3.43;1.27;;;9.00;99.90;;;;;;5011389;28;20025;-90
2023/01/30 08:11:09;;;;;;;2.78;1.05;;;9.00;99.90;;;;;;4988767;28;20297;-91
2023/01/30 08:13:35;;;;;;;3.05;1.00;;;9.10;99.90;;;;;;5001842;28;20068;-89
2023/01/30 08:16:02;;;;;;;4.40;1.30;;;9.10;99.90;;;;;;5026911;28;20688;-90
2023/01/30 08:18:29;;;;;;;3.58;1.38;;;9.10;99.90;;;;;;5015335;28;20077;-89
2023/01/30 08:21:04;;;;;;;5.40;1.43;;;9.10;99.90;;;;;;5012519;28;20246;-91
2023/01/30 08:23:31;;;;;;;7.38;1.60;;;9.10;99.90;;;;;;5000743;28;20033;-89
2023/01/30 08:25:59;;;;;;;3.08;1.20;;;9.20;99.90;;;;;;4979738;28;20033;-90
2023/01/30 08:28:24;;;;;;;4.22;1.50;;;9.30;99.90;;;;;;5036875;28;20029;-88
2023/01/30 08:30:53;;;;;;;3.03;1.40;;;9.40;99.90;;;;;;5025727;28;20029;-90
2023/01/30 08:33:20;;;;;;;3.08;1.45;;;9.40;99.90;;;;;;5019324;28;20052;-90
2023/01/30 08:35:46;;;;;;;4.63;1.60;;;9.50;99.90;;;;;;5015002;28;20660;-89
2023/01/30 08:38:12;;;;;;;4.40;1.73;;;9.60;99.90;;;;;;5029592;28;20017;-89
2023/01/30 08:40:38;;;;;;;3.22;1.42;;;9.60;99.90;;;;;;5008947;28;20970;-90
2023/01/30 08:43:04;;;;;;;4.03;1.70;;;9.70;99.90;;;;;;5003730;28;20134;-90
2023/01/30 08:45:30;;;;;;;5.38;1.92;;;9.80;99.90;;;;;;5020463;28;20072;-90
2023/01/30 08:48:01;;;;;;;4.35;1.50;;;9.80;99.90;;;;;;5011933;28;20116;-90
2023/01/30 08:50:27;;;;;;;5.28;2.25;;;9.90;99.90;;;;;;5029443;28;20027;-90
2023/01/30 08:52:53;;;;;;;3.83;1.53;;;9.90;99.90;;;;;;5011691;28;20005;-89
2023/01/30 08:55:19;;;;;;;4.95;1.80;;;9.90;99.90;;;;;;5001036;28;20024;-90
2023/01/30 08:57:46;;;;;;;6.75;2.40;;;10.00;99.90;;;;;;4992012;28;20032;-89
2023/01/30 09:00:13;;;;;;;4.72;1.75;;;10.00;99.90;;;;;;5001764;28;20032;-89
2023/01/30 09:02:38;;;;;;;5.65;1.90;;;10.10;99.90;;;;;;5012771;28;20621;-90
2023/01/30 09:05:05;;;;;;;5.90;1.70;;;10.20;99.90;;;;;;5014597;28;20378;-89
2023/01/30 09:07:31;;;;;;;3.97;1.65;;;10.20;99.90;;;;;;5016005;28;20043;-89
2023/01/30 09:09:57;;;;;;;6.78;1.77;;;10.40;99.90;;;;;;5027787;28;20302;-89
2023/01/30 09:12:23;;;;;;;4.07;1.60;;;10.50;99.90;;;;;;5000738;28;20029;-89
2023/01/30 09:14:49;;;;;;;6.35;1.60;;;10.60;99.90;;;;;;4990814;28;20039;-90
2023/01/30 09:17:15;;;;;;;4.50;1.47;;;10.70;99.90;;;;;;5032495;28;20033;-91
2023/01/30 09:19:40;;;;;;;7.65;1.63;;;10.80;99.90;;;;;;5028899;28;20094;-89
2023/01/30 09:22:06;;;;;;;3.60;1.10;;;10.80;99.90;;;;;;5013829;28;20543;-89
2023/01/30 09:24:35;;;;;;;4.63;1.33;;;10.90;99.90;;;;;;5036092;28;20540;-90
2023/01/30 09:27:01;;;;;;;3.13;1.30;;;11.00;99.90;;;;;;5014610;28;20079;-89
2023/01/30 09:29:27;;;;;;;9.07;1.70;;;11.00;99.90;;;;;;4990051;28;20363;-89
2023/01/30 09:31:55;;;;;;;3.85;1.33;;;11.10;99.90;;;;;;5016842;28;20033;-89
2023/01/30 09:34:26;;;;;;;5.90;1.55;;;11.10;99.90;;;;;;5014579;28;20081;-88
2023/01/30 09:36:56;;;;;;;5.27;1.60;;;11.20;99.90;;;;;;5010660;28;20335;-90
2023/01/30 09:39:23;;;;;;;4.00;1.20;;;11.30;99.90;;;;;;5033231;28;20027;-89
2023/01/30 09:42:12;;;;;;;5.30;1.45;;;11.40;99.90;;;;;;4998479;28;20501;-89
2023/01/30 09:45:13;;;;;;;4.95;1.17;;;11.60;99.90;;;;;;5007390;28;20078;-89
2023/01/30 09:47:48;;;;;;;5.07;1.20;;;11.90;99.90;;;;;;5017335;28;20532;-90
2023/01/30 09:50:43;;;;;;;4.30;1.20;;;12.10;99.90;;;;;;5034575;28;20029;-90
2023/01/30 09:53:17;;;;;;;3.38;1.05;;;12.70;99.90;;;;;;5032812;28;20360;-90
2023/01/30 09:55:45;;;;;;;4.75;1.20;;;13.20;99.90;;;;;;5027228;28;20133;-88
2023/01/30 09:58:21;;;;;;;5.13;1.50;;;13.60;99.90;;;;;;5018063;28;20161;-90
2023/01/30 10:00:48;;;;;;;7.22;1.45;;;14.00;99.90;;;;;;4987500;28;20036;-90
2023/01/30 10:03:17;;;;;;;6.67;1.30;;;14.30;99.90;;;;;;5008839;28;20325;-90
2023/01/30 10:06:06;;;;;;;6.35;1.20;;;14.50;99.90;;;;;;5025275;28;20049;-90
2023/01/30 10:08:50;;;;;;;5.75;1.20;;;14.60;99.90;;;;;;5006487;28;20025;-89
2023/01/30 10:11:22;;;;;;;5.97;1.10;;;14.70;99.90;;;;;;5030318;28;20036;-89
2023/01/30 10:14:22;;;;;;;5.90;1.20;;;14.80;99.90;;;;;;5007393;28;20481;-89
2023/01/30 10:16:54;;;;;;;6.83;1.27;;;14.80;99.90;;;;;;5002565;28;20794;-90
2023/01/30 10:20:02;;;;;;;4.50;1.42;;;14.90;99.90;;;;;;5032649;28;20025;-89
2023/01/30 10:23:01;;;;;;;4.20;0.95;;;15.10;99.90;;;;;;5029389;28;20536;-91
2023/01/30 10:25:33;;;;;;;6.40;1.58;;;15.40;99.90;;;;;;5004740;28;20310;-90
2023/01/30 10:28:05;;;;;;;6.03;1.20;;;15.70;99.90;;;;;;5023665;28;20427;-89
2023/01/30 10:30:33;;;;;;;6.27;1.30;;;15.90;99.90;;;;;;5007130;28;20024;-89
2023/01/30 10:33:16;;;;;;;5.68;1.05;;;16.10;99.90;;;;;;4998929;28;20513;-88
2023/01/30 10:35:43;;;;;;;6.68;1.20;;;16.30;99.90;;;;;;5000617;28;20112;-90
2023/01/30 10:38:20;;;;;;;5.07;1.17;;;16.50;99.90;;;;;;5010590;28;20268;-90
2023/01/30 10:40:56;;;;;;;6.97;1.27;;;16.60;99.90;;;;;;5012379;28;20238;-89
2023/01/30 10:43:31;;;;;;;5.47;1.30;;;16.60;99.90;;;;;;5029131;28;20021;-88
2023/01/30 10:46:00;;;;;;;4.50;1.25;;;16.40;99.90;;;;;;5009708;28;20087;-89
2023/01/30 10:49:03;;;;;;;4.32;1.05;;;16.20;99.90;;;;;;4981374;28;20393;-89
2023/01/30 10:51:39;;;;;;;5.28;1.10;;;16.00;99.90;;;;;;4992471;28;20027;-89
2023/01/30 10:54:23;;;;;;;4.35;1.33;;;15.70;99.90;;;;;;5026565;28;20017;-89
2023/01/30 10:56:58;;;;;;;5.57;1.00;;;15.50;99.90;;;;;;5012805;28;20150;-89
2023/01/30 10:59:44;;;;;;;3.80;0.93;;;15.40;99.90;;;;;;4991140;28;20025;-90
2023/01/30 11:02:26;;;;;;;5.00;1.13;;;15.30;99.90;;;;;;5012528;28;20562;-90
2023/01/30 11:04:58;;;;;;;4.22;0.93;;;15.30;99.90;;;;;;4989304;28;20021;-88
2023/01/30 11:07:25;;;;;;;5.35;1.10;;;15.30;99.90;;;;;;4981066;28;20128;-89
2023/01/30 11:09:50;;;;;;;5.77;0.90;;;15.20;99.90;;;;;;5027036;28;20032;-90
2023/01/30 11:12:16;;;;;;;3.88;1.10;;;15.20;99.90;;;;;;5014505;28;20025;-90
2023/01/30 11:15:03;;;;;;;6.67;1.23;;;15.10;99.90;;;;;;5025660;28;20596;-89
2023/01/30 11:17:40;;;;;;;2.60;0.82;;;14.90;99.90;;;;;;4992896;28;20033;-91
2023/01/30 11:20:15;;;;;;;3.35;0.80;;;14.80;99.90;;;;;;5015920;28;20033;-89
2023/01/30 11:22:48;;;;;;;5.80;0.95;;;14.60;99.90;;;;;;5009999;28;20242;-88
2023/01/30 11:25:21;;;;;;;5.90;0.98;;;14.40;99.90;;;;;;5008922;28;20017;-89
2023/01/30 11:27:58;;;;;;;3.97;1.10;;;14.30;99.90;;;;;;5025008;28;20021;-90
2023/01/30 11:30:32;;;;;;;5.00;1.05;;;14.10;99.90;;;;;;5006420;28;20075;-89
2023/01/30 11:33:12;;;;;;;8.50;1.23;;;13.90;99.90;;;;;;5018049;28;20033;-89
2023/01/30 11:35:54;;;;;;;3.30;1.10;;;13.80;99.90;;;;;;4987137;28;20231;-89
2023/01/30 11:38:25;;;;;;;3.35;1.05;;;13.60;99.90;;;;;;5018359;28;20253;-87
2023/01/30 11:41:21;;;;;;;4.57;0.90;;;13.50;99.90;;;;;;5030276;28;20033;-88
2023/01/30 11:43:47;;;;;;;4.82;1.00;;;13.40;99.90;;;;;;5006402;28;20370;-88
2023/01/30 11:46:17;;;;;;;5.85;0.90;;;13.30;99.90;;;;;;5009190;28;20037;-88
2023/01/30 11:49:02;;;;;;;4.68;0.88;;;13.20;99.90;;;;;;5019078;28;20225;-88
2023/01/30 11:51:31;;;;;;;4.40;1.00;;;13.20;99.90;;;;;;5001561;28;20036;-89
2023/01/30 11:54:01;;;;;;;4.40;1.13;;;13.20;99.90;;;;;;5035208;28;20089;-88
2023/01/30 11:56:41;;;;;;;3.47;0.90;;;13.20;99.90;;;;;;5004613;28;20026;-89
2023/01/30 11:59:30;;;;;;;6.00;1.23;;;13.30;99.90;;;;;;4997841;28;20115;-90
2023/01/30 12:02:13;;;;;;;3.42;1.00;;;13.20;99.90;;;;;;5025008;28;20055;-89
2023/01/30 12:04:46;;;;;;;3.45;0.90;;;13.20;99.90;;;;;;5019467;28;20619;-91
2023/01/30 12:07:20;;;;;;;3.70;1.20;;;13.20;99.90;;;;;;5003381;28;20032;-88
2023/01/30 12:09:49;;;;;;;4.68;1.00;;;13.10;99.90;;;;;;5003430;28;20041;-90
2023/01/30 12:12:31;;;;;;;6.25;1.35;;;13.10;99.90;;;;;;5012538;28;20029;-90
2023/01/30 12:15:04;;;;;;;2.97;0.90;;;13.10;99.90;;;;;;5021906;28;20025;-89
2023/01/30 12:17:33;;;;;;;4.40;0.93;;;13.10;99.90;;;;;;5012497;28;20443;-89
2023/01/30 12:20:21;;;;;;;5.20;1.07;;;13.00;99.90;;;;;;5030874;28;20025;-87
2023/01/30 12:23:28;;;;;;;4.70;1.10;;;13.00;99.90;;;;;;4989630;28;20041;-91
2023/01/30 12:25:57;;;;;;;3.63;0.82;;;13.00;99.90;;;;;;5024101;28;20319;-88
2023/01/30 12:28:32;;;;;;;5.43;1.00;;;12.90;99.90;;;;;;5011982;28;20471;-89
2023/01/30 12:31:09;;;;;;;2.55;0.88;;;12.90;99.90;;;;;;5026600;28;20456;-89
2023/01/30 12:33:35;;;;;;;3.73;0.80;;;12.90;99.90;;;;;;4999018;28;20524;-91
2023/01/30 12:36:12;;;;;;;4.22;1.02;;;12.90;99.90;;;;;;5033846;28;20013;-88
2023/01/30 12:38:44;;;;;;;4.13;1.02;;;12.80;99.90;;;;;;5007889;28;20064;-91
2023/01/30 12:41:20;;;;;;;2.45;0.90;;;12.80;99.90;;;;;;5018934;28;20040;-91
2023/01/30 12:44:15;;;;;;;5.05;1.15;;;12.90;99.90;;;;;;5009445;28;20112;-90
2023/01/30 12:46:55;;;;;;;5.70;1.20;;;12.80;99.90;;;;;;5009280;28;20516;-89
2023/01/30 12:49:20;;;;;;;4.80;0.98;;;12.80;99.90;;;;;;5013781;28;20033;-88
2023/01/30 12:51:48;;;;;;;5.43;1.07;;;12.80;99.90;;;;;;5028718;28;20040;-89
2023/01/30 12:54:23;;;;;;;3.93;0.70;;;12.80;99.90;;;;;;5005773;28;20819;-89
2023/01/30 12:57:16;;;;;;;4.57;1.13;;;12.70;99.90;;;;;;5001606;28;20039;-90
2023/01/30 12:59:47;;;;;;;4.25;1.20;;;12.70;99.90;;;;;;5023002;28;20409;-89
2023/01/30 13:02:38;;;;;;;3.63;0.90;;;12.70;99.90;;;;;;5020205;28;20036;-89
2023/01/30 13:05:13;;;;;;;4.72;1.00;;;12.70;99.90;;;;;;5016096;28;20079;-90
2023/01/30 13:07:50;;;;;;;3.13;1.10;;;12.90;99.90;;;;;;5011701;28;20028;-88
2023/01/30 13:10:46;;;;;;;6.50;1.30;;;13.00;99.90;;;;;;5007464;28;20386;-89
2023/01/30 13:13:24;;;;;;;5.28;1.00;;;13.10;99.90;;;;;;5031406;28;20476;-89
2023/01/30 13:15:59;;;;;;;6.75;1.25;;;13.20;99.90;;;;;;5033671;28;20033;-89
2023/01/30 13:18:35;;;;;;;3.58;0.82;;;13.30;99.90;;;;;;5027562;28;20493;-89